sensor_id;sensor_type;location;lat;lon;timestamp;P1;durP1;ratioP1;P2;durP2;ratioP2
36391;SDS011;22639;42.690;23.356;2023-11-22T00:00:09;32.60;;;18.97;;
36391;SDS011;22639;42.690;23.356;2023-11-22T00:02:36;35.17;;;19.70;;
36391;SDS011;22639;42.690;23.356;2023-11-22T00:05:02;38.57;;;20.70;;
36391;SDS011;22639;42.690;23.356;2023-11-22T00:07:28;29.00;;;19.90;;
36391;SDS011;22639;42.690;23.356;2023-11-22T00:09:54;27.90;;;19.70;;
36391;SDS011;22639;42.690;23.356;2023-11-22T00:12:20;31.83;;;19.97;;
36391;SDS011;22639;42.690;23.356;2023-11-22T00:14:47;31.03;;;19.50;;
36391;SDS011;22639;42.690;23.356;2023-11-22T00:17:12;32.60;;;18.10;;
36391;SDS011;22639;42.690;23.356;2023-11-22T00:19:38;30.57;;;20.03;;
36391;SDS011;22639;42.690;23.356;2023-11-22T00:22:04;26.93;;;18.63;;
36391;SDS011;22639;42.690;23.356;2023-11-22T00:24:36;30.23;;;17.37;;
36391;SDS011;22639;42.690;23.356;2023-11-22T00:27:02;30.87;;;18.50;;
36391;SDS011;22639;42.690;23.356;2023-11-22T00:29:28;34.20;;;19.67;;
36391;SDS011;22639;42.690;23.356;2023-11-22T00:31:53;27.73;;;18.60;;
36391;SDS011;22639;42.690;23.356;2023-11-22T00:34:19;30.00;;;19.37;;
36391;SDS011;22639;42.690;23.356;2023-11-22T00:36:44;28.53;;;18.53;;
36391;SDS011;22639;42.690;23.356;2023-11-22T00:39:10;34.03;;;19.07;;
36391;SDS011;22639;42.690;23.356;2023-11-22T00:41:38;32.53;;;19.07;;
36391;SDS011;22639;42.690;23.356;2023-11-22T00:44:04;29.93;;;18.13;;
36391;SDS011;22639;42.690;23.356;2023-11-22T00:46:31;30.50;;;18.77;;
36391;SDS011;22639;42.690;23.356;2023-11-22T00:48:59;28.10;;;18.53;;
36391;SDS011;22639;42.690;23.356;2023-11-22T00:51:24;24.10;;;17.23;;
36391;SDS011;22639;42.690;23.356;2023-11-22T00:53:50;31.73;;;19.73;;
36391;SDS011;22639;42.690;23.356;2023-11-22T00:56:16;27.20;;;17.37;;
36391;SDS011;22639;42.690;23.356;2023-11-22T00:58:41;29.87;;;18.60;;
36391;SDS011;22639;42.690;23.356;2023-11-22T01:01:07;27.63;;;18.80;;
36391;SDS011;22639;42.690;23.356;2023-11-22T01:03:32;31.67;;;18.57;;
36391;SDS011;22639;42.690;23.356;2023-11-22T01:05:58;25.80;;;17.23;;
36391;SDS011;22639;42.690;23.356;2023-11-22T01:08:23;30.97;;;18.80;;
36391;SDS011;22639;42.690;23.356;2023-11-22T01:10:49;26.13;;;18.07;;
36391;SDS011;22639;42.690;23.356;2023-11-22T01:13:14;29.07;;;19.03;;
36391;SDS011;22639;42.690;23.356;2023-11-22T01:15:40;27.73;;;17.87;;
36391;SDS011;22639;42.690;23.356;2023-11-22T01:18:06;27.87;;;17.67;;
36391;SDS011;22639;42.690;23.356;2023-11-22T01:20:32;28.43;;;19.33;;
36391;SDS011;22639;42.690;23.356;2023-11-22T01:22:57;35.63;;;19.60;;
36391;SDS011;22639;42.690;23.356;2023-11-22T01:25:23;34.70;;;19.57;;
36391;SDS011;22639;42.690;23.356;2023-11-22T01:27:48;29.03;;;20.27;;
36391;SDS011;22639;42.690;23.356;2023-11-22T01:30:13;36.70;;;20.20;;
36391;SDS011;22639;42.690;23.356;2023-11-22T01:32:39;34.27;;;20.90;;
36391;SDS011;22639;42.690;23.356;2023-11-22T01:35:05;29.63;;;19.00;;
36391;SDS011;22639;42.690;23.356;2023-11-22T01:37:31;29.33;;;18.57;;
36391;SDS011;22639;42.690;23.356;2023-11-22T01:39:57;33.20;;;18.97;;
36391;SDS011;22639;42.690;23.356;2023-11-22T01:42:23;30.57;;;19.37;;
36391;SDS011;22639;42.690;23.356;2023-11-22T01:44:50;29.37;;;19.53;;
36391;SDS011;22639;42.690;23.356;2023-11-22T01:47:17;33.00;;;19.47;;
36391;SDS011;22639;42.690;23.356;2023-11-22T01:49:43;33.30;;;19.57;;
36391;SDS011;22639;42.690;23.356;2023-11-22T01:52:09;25.50;;;17.03;;
36391;SDS011;22639;42.690;23.356;2023-11-22T01:54:35;27.13;;;17.63;;
36391;SDS011;22639;42.690;23.356;2023-11-22T01:57:02;31.80;;;18.97;;
36391;SDS011;22639;42.690;23.356;2023-11-22T01:59:28;32.70;;;19.30;;
36391;SDS011;22639;42.690;23.356;2023-11-22T02:01:56;26.93;;;16.37;;
36391;SDS011;22639;42.690;23.356;2023-11-22T02:04:22;28.37;;;19.17;;
36391;SDS011;22639;42.690;23.356;2023-11-22T02:06:47;25.87;;;16.07;;
36391;SDS011;22639;42.690;23.356;2023-11-22T02:09:13;28.60;;;16.83;;
36391;SDS011;22639;42.690;23.356;2023-11-22T02:11:41;27.30;;;17.47;;
36391;SDS011;22639;42.690;23.356;2023-11-22T02:14:14;32.57;;;19.30;;
36391;SDS011;22639;42.690;23.356;2023-11-22T02:16:40;25.37;;;16.87;;
36391;SDS011;22639;42.690;23.356;2023-11-22T02:19:06;36.20;;;18.77;;
36391;SDS011;22639;42.690;23.356;2023-11-22T02:21:38;29.00;;;18.87;;
36391;SDS011;22639;42.690;23.356;2023-11-22T02:24:04;26.17;;;16.80;;
36391;SDS011;22639;42.690;23.356;2023-11-22T02:26:30;22.77;;;16.03;;
36391;SDS011;22639;42.690;23.356;2023-11-22T02:28:56;26.43;;;16.33;;
36391;SDS011;22639;42.690;23.356;2023-11-22T02:31:21;24.30;;;14.80;;
36391;SDS011;22639;42.690;23.356;2023-11-22T02:33:47;26.93;;;14.90;;
36391;SDS011;22639;42.690;23.356;2023-11-22T02:36:13;21.73;;;14.30;;
36391;SDS011;22639;42.690;23.356;2023-11-22T02:38:38;25.07;;;16.00;;
36391;SDS011;22639;42.690;23.356;2023-11-22T02:41:05;27.07;;;15.23;;
36391;SDS011;22639;42.690;23.356;2023-11-22T02:43:30;24.03;;;16.03;;
36391;SDS011;22639;42.690;23.356;2023-11-22T02:45:56;22.87;;;15.10;;
36391;SDS011;22639;42.690;23.356;2023-11-22T02:48:22;23.70;;;15.53;;
36391;SDS011;22639;42.690;23.356;2023-11-22T02:50:48;17.40;;;12.57;;
36391;SDS011;22639;42.690;23.356;2023-11-22T02:53:14;19.17;;;13.80;;
36391;SDS011;22639;42.690;23.356;2023-11-22T02:55:40;22.90;;;12.57;;
36391;SDS011;22639;42.690;23.356;2023-11-22T02:58:06;22.07;;;12.50;;
36391;SDS011;22639;42.690;23.356;2023-11-22T03:00:31;19.33;;;13.70;;
36391;SDS011;22639;42.690;23.356;2023-11-22T03:02:59;22.37;;;13.00;;
36391;SDS011;22639;42.690;23.356;2023-11-22T03:05:25;21.43;;;12.70;;
36391;SDS011;22639;42.690;23.356;2023-11-22T03:07:50;23.20;;;14.13;;
36391;SDS011;22639;42.690;23.356;2023-11-22T03:10:16;20.30;;;13.00;;
36391;SDS011;22639;42.690;23.356;2023-11-22T03:12:43;19.60;;;13.27;;
36391;SDS011;22639;42.690;23.356;2023-11-22T03:15:09;20.33;;;13.27;;
36391;SDS011;22639;42.690;23.356;2023-11-22T03:17:34;18.33;;;13.13;;
36391;SDS011;22639;42.690;23.356;2023-11-22T03:20:00;20.77;;;12.63;;
36391;SDS011;22639;42.690;23.356;2023-11-22T03:22:26;22.07;;;13.20;;
36391;SDS011;22639;42.690;23.356;2023-11-22T03:24:55;20.97;;;12.80;;
36391;SDS011;22639;42.690;23.356;2023-11-22T03:27:21;17.23;;;11.87;;
36391;SDS011;22639;42.690;23.356;2023-11-22T03:29:48;16.20;;;11.07;;
36391;SDS011;22639;42.690;23.356;2023-11-22T03:32:14;20.23;;;12.43;;
36391;SDS011;22639;42.690;23.356;2023-11-22T03:34:40;19.47;;;15.23;;
36391;SDS011;22639;42.690;23.356;2023-11-22T03:37:05;18.33;;;13.87;;
36391;SDS011;22639;42.690;23.356;2023-11-22T03:39:31;19.20;;;14.27;;
36391;SDS011;22639;42.690;23.356;2023-11-22T03:41:56;16.47;;;12.03;;
36391;SDS011;22639;42.690;23.356;2023-11-22T03:44:22;17.73;;;11.53;;
36391;SDS011;22639;42.690;23.356;2023-11-22T03:46:47;20.33;;;12.53;;
36391;SDS011;22639;42.690;23.356;2023-11-22T03:49:13;15.43;;;10.90;;
36391;SDS011;22639;42.690;23.356;2023-11-22T03:51:41;19.47;;;11.83;;
36391;SDS011;22639;42.690;23.356;2023-11-22T03:54:07;19.83;;;12.97;;
36391;SDS011;22639;42.690;23.356;2023-11-22T03:56:35;17.33;;;11.20;;
36391;SDS011;22639;42.690;23.356;2023-11-22T03:59:00;14.90;;;11.07;;
36391;SDS011;22639;42.690;23.356;2023-11-22T04:01:26;19.43;;;11.67;;
36391;SDS011;22639;42.690;23.356;2023-11-22T04:03:51;17.27;;;11.80;;
36391;SDS011;22639;42.690;23.356;2023-11-22T04:06:17;16.80;;;10.80;;
36391;SDS011;22639;42.690;23.356;2023-11-22T04:08:44;21.03;;;10.73;;
36391;SDS011;22639;42.690;23.356;2023-11-22T04:11:10;15.77;;;9.83;;
36391;SDS011;22639;42.690;23.356;2023-11-22T04:13:37;16.37;;;11.23;;
36391;SDS011;22639;42.690;23.356;2023-11-22T04:16:03;14.57;;;10.67;;
36391;SDS011;22639;42.690;23.356;2023-11-22T04:18:29;14.47;;;10.93;;
36391;SDS011;22639;42.690;23.356;2023-11-22T04:20:55;14.43;;;9.60;;
36391;SDS011;22639;42.690;23.356;2023-11-22T04:23:23;22.57;;;11.30;;
36391;SDS011;22639;42.690;23.356;2023-11-22T04:25:48;24.33;;;12.20;;
36391;SDS011;22639;42.690;23.356;2023-11-22T04:28:14;14.97;;;11.17;;
36391;SDS011;22639;42.690;23.356;2023-11-22T04:30:40;17.23;;;11.43;;
36391;SDS011;22639;42.690;23.356;2023-11-22T04:33:06;14.27;;;10.70;;
36391;SDS011;22639;42.690;23.356;2023-11-22T04:35:32;20.87;;;12.23;;
36391;SDS011;22639;42.690;23.356;2023-11-22T04:38:01;18.20;;;10.73;;
36391;SDS011;22639;42.690;23.356;2023-11-22T04:40:28;20.73;;;12.70;;
36391;SDS011;22639;42.690;23.356;2023-11-22T04:42:54;17.73;;;10.70;;
36391;SDS011;22639;42.690;23.356;2023-11-22T04:45:20;17.87;;;10.70;;
36391;SDS011;22639;42.690;23.356;2023-11-22T04:47:45;21.83;;;12.83;;
36391;SDS011;22639;42.690;23.356;2023-11-22T04:50:11;15.70;;;11.23;;
36391;SDS011;22639;42.690;23.356;2023-11-22T04:52:38;19.23;;;12.63;;
36391;SDS011;22639;42.690;23.356;2023-11-22T04:55:04;15.63;;;11.50;;
36391;SDS011;22639;42.690;23.356;2023-11-22T04:57:30;17.57;;;11.70;;
36391;SDS011;22639;42.690;23.356;2023-11-22T04:59:56;15.10;;;10.77;;
36391;SDS011;22639;42.690;23.356;2023-11-22T05:02:22;18.73;;;10.90;;
36391;SDS011;22639;42.690;23.356;2023-11-22T05:04:47;17.10;;;10.90;;
36391;SDS011;22639;42.690;23.356;2023-11-22T05:07:17;14.60;;;11.23;;
36391;SDS011;22639;42.690;23.356;2023-11-22T05:09:44;18.53;;;11.60;;
36391;SDS011;22639;42.690;23.356;2023-11-22T05:12:09;21.73;;;12.03;;
36391;SDS011;22639;42.690;23.356;2023-11-22T05:14:36;15.77;;;12.10;;
36391;SDS011;22639;42.690;23.356;2023-11-22T05:17:02;16.97;;;12.00;;
36391;SDS011;22639;42.690;23.356;2023-11-22T05:19:27;19.30;;;10.67;;
36391;SDS011;22639;42.690;23.356;2023-11-22T05:21:52;14.03;;;10.47;;
36391;SDS011;22639;42.690;23.356;2023-11-22T05:24:18;17.93;;;11.20;;
36391;SDS011;22639;42.690;23.356;2023-11-22T05:26:44;15.47;;;10.63;;
36391;SDS011;22639;42.690;23.356;2023-11-22T05:29:10;17.70;;;11.70;;
36391;SDS011;22639;42.690;23.356;2023-11-22T05:31:35;17.40;;;12.57;;
36391;SDS011;22639;42.690;23.356;2023-11-22T05:34:02;19.53;;;12.03;;
36391;SDS011;22639;42.690;23.356;2023-11-22T05:36:28;16.10;;;11.73;;
36391;SDS011;22639;42.690;23.356;2023-11-22T05:38:54;20.10;;;13.43;;
36391;SDS011;22639;42.690;23.356;2023-11-22T05:41:20;23.80;;;12.77;;
36391;SDS011;22639;42.690;23.356;2023-11-22T05:43:46;18.87;;;12.67;;
36391;SDS011;22639;42.690;23.356;2023-11-22T05:46:11;19.17;;;12.97;;
36391;SDS011;22639;42.690;23.356;2023-11-22T05:48:39;18.10;;;12.70;;
36391;SDS011;22639;42.690;23.356;2023-11-22T05:51:05;19.30;;;14.03;;
36391;SDS011;22639;42.690;23.356;2023-11-22T05:53:30;17.07;;;12.03;;
36391;SDS011;22639;42.690;23.356;2023-11-22T05:55:56;18.00;;;13.20;;
36391;SDS011;22639;42.690;23.356;2023-11-22T05:58:21;17.70;;;12.23;;
36391;SDS011;22639;42.690;23.356;2023-11-22T06:00:47;24.17;;;14.27;;
36391;SDS011;22639;42.690;23.356;2023-11-22T06:03:13;21.37;;;13.23;;
36391;SDS011;22639;42.690;23.356;2023-11-22T06:05:39;24.53;;;12.37;;
36391;SDS011;22639;42.690;23.356;2023-11-22T06:08:05;23.80;;;14.93;;
36391;SDS011;22639;42.690;23.356;2023-11-22T06:10:31;20.97;;;13.73;;
36391;SDS011;22639;42.690;23.356;2023-11-22T06:12:56;20.00;;;12.27;;
36391;SDS011;22639;42.690;23.356;2023-11-22T06:15:22;22.33;;;13.73;;
36391;SDS011;22639;42.690;23.356;2023-11-22T06:17:48;18.10;;;12.37;;
36391;SDS011;22639;42.690;23.356;2023-11-22T06:20:14;23.03;;;13.17;;
36391;SDS011;22639;42.690;23.356;2023-11-22T06:22:40;19.00;;;14.17;;
36391;SDS011;22639;42.690;23.356;2023-11-22T06:25:10;24.43;;;14.53;;
36391;SDS011;22639;42.690;23.356;2023-11-22T06:27:38;17.60;;;12.70;;
36391;SDS011;22639;42.690;23.356;2023-11-22T06:30:05;17.33;;;13.03;;
36391;SDS011;22639;42.690;23.356;2023-11-22T06:32:31;20.97;;;13.40;;
36391;SDS011;22639;42.690;23.356;2023-11-22T06:34:58;16.30;;;12.87;;
36391;SDS011;22639;42.690;23.356;2023-11-22T06:37:24;19.80;;;13.07;;
36391;SDS011;22639;42.690;23.356;2023-11-22T06:39:49;21.33;;;13.73;;
36391;SDS011;22639;42.690;23.356;2023-11-22T06:42:16;22.43;;;12.87;;
36391;SDS011;22639;42.690;23.356;2023-11-22T06:44:41;19.60;;;13.17;;
36391;SDS011;22639;42.690;23.356;2023-11-22T06:47:07;18.90;;;13.60;;
36391;SDS011;22639;42.690;23.356;2023-11-22T06:49:33;22.33;;;14.10;;
36391;SDS011;22639;42.690;23.356;2023-11-22T06:51:59;16.90;;;12.10;;
36391;SDS011;22639;42.690;23.356;2023-11-22T06:54:25;21.20;;;12.87;;
36391;SDS011;22639;42.690;23.356;2023-11-22T06:57:00;22.57;;;13.60;;
36391;SDS011;22639;42.690;23.356;2023-11-22T06:59:26;18.90;;;12.13;;
36391;SDS011;22639;42.690;23.356;2023-11-22T07:01:51;19.47;;;12.70;;
36391;SDS011;22639;42.690;23.356;2023-11-22T07:04:16;20.10;;;12.80;;
36391;SDS011;22639;42.690;23.356;2023-11-22T07:06:42;17.67;;;12.40;;
36391;SDS011;22639;42.690;23.356;2023-11-22T07:09:09;19.80;;;13.33;;
36391;SDS011;22639;42.690;23.356;2023-11-22T07:11:35;18.10;;;12.03;;
36391;SDS011;22639;42.690;23.356;2023-11-22T07:14:02;17.60;;;12.40;;
36391;SDS011;22639;42.690;23.356;2023-11-22T07:16:29;20.33;;;12.77;;
36391;SDS011;22639;42.690;23.356;2023-11-22T07:18:56;16.33;;;12.73;;
36391;SDS011;22639;42.690;23.356;2023-11-22T07:21:23;15.57;;;12.70;;
36391;SDS011;22639;42.690;23.356;2023-11-22T07:23:48;17.87;;;12.70;;
36391;SDS011;22639;42.690;23.356;2023-11-22T07:26:14;16.10;;;12.57;;
36391;SDS011;22639;42.690;23.356;2023-11-22T07:28:40;21.43;;;13.30;;
36391;SDS011;22639;42.690;23.356;2023-11-22T07:31:08;22.40;;;13.43;;
36391;SDS011;22639;42.690;23.356;2023-11-22T07:33:34;24.93;;;12.80;;
36391;SDS011;22639;42.690;23.356;2023-11-22T07:36:00;18.50;;;12.53;;
36391;SDS011;22639;42.690;23.356;2023-11-22T07:38:28;16.77;;;11.57;;
36391;SDS011;22639;42.690;23.356;2023-11-22T07:40:56;22.13;;;13.33;;
36391;SDS011;22639;42.690;23.356;2023-11-22T07:43:21;18.77;;;14.07;;
36391;SDS011;22639;42.690;23.356;2023-11-22T07:45:47;21.17;;;15.17;;
36391;SDS011;22639;42.690;23.356;2023-11-22T07:48:15;22.17;;;14.97;;
36391;SDS011;22639;42.690;23.356;2023-11-22T07:50:46;22.43;;;14.40;;
36391;SDS011;22639;42.690;23.356;2023-11-22T07:53:14;17.53;;;13.13;;
36391;SDS011;22639;42.690;23.356;2023-11-22T07:55:40;20.70;;;14.23;;
36391;SDS011;22639;42.690;23.356;2023-11-22T07:58:07;19.63;;;14.23;;
36391;SDS011;22639;42.690;23.356;2023-11-22T08:00:33;20.60;;;12.37;;
36391;SDS011;22639;42.690;23.356;2023-11-22T08:03:02;15.80;;;12.63;;
36391;SDS011;22639;42.690;23.356;2023-11-22T08:05:30;19.70;;;13.80;;
36391;SDS011;22639;42.690;23.356;2023-11-22T08:08:04;17.77;;;12.70;;
36391;SDS011;22639;42.690;23.356;2023-11-22T08:10:36;17.53;;;12.80;;
36391;SDS011;22639;42.690;23.356;2023-11-22T08:13:01;20.80;;;14.17;;
36391;SDS011;22639;42.690;23.356;2023-11-22T08:15:28;18.57;;;12.80;;
36391;SDS011;22639;42.690;23.356;2023-11-22T08:17:54;18.70;;;12.50;;
36391;SDS011;22639;42.690;23.356;2023-11-22T08:20:20;21.13;;;13.53;;
36391;SDS011;22639;42.690;23.356;2023-11-22T08:22:46;18.77;;;12.07;;
36391;SDS011;22639;42.690;23.356;2023-11-22T08:25:14;23.47;;;14.53;;
36391;SDS011;22639;42.690;23.356;2023-11-22T08:27:41;24.73;;;15.87;;
36391;SDS011;22639;42.690;23.356;2023-11-22T08:30:27;22.20;;;15.93;;
36391;SDS011;22639;42.690;23.356;2023-11-22T08:32:53;28.03;;;18.60;;
36391;SDS011;22639;42.690;23.356;2023-11-22T08:35:19;30.30;;;17.87;;
36391;SDS011;22639;42.690;23.356;2023-11-22T08:37:48;17.73;;;13.77;;
36391;SDS011;22639;42.690;23.356;2023-11-22T08:40:15;27.53;;;16.73;;
36391;SDS011;22639;42.690;23.356;2023-11-22T08:42:46;18.93;;;12.97;;
36391;SDS011;22639;42.690;23.356;2023-11-22T08:45:11;17.97;;;11.87;;
36391;SDS011;22639;42.690;23.356;2023-11-22T08:47:38;15.37;;;11.97;;
36391;SDS011;22639;42.690;23.356;2023-11-22T08:50:05;20.93;;;11.63;;
36391;SDS011;22639;42.690;23.356;2023-11-22T08:52:36;19.20;;;12.57;;
36391;SDS011;22639;42.690;23.356;2023-11-22T08:55:03;23.27;;;14.90;;
36391;SDS011;22639;42.690;23.356;2023-11-22T08:57:31;23.00;;;13.13;;
36391;SDS011;22639;42.690;23.356;2023-11-22T08:59:56;19.40;;;15.77;;
36391;SDS011;22639;42.690;23.356;2023-11-22T09:02:26;25.43;;;18.00;;
36391;SDS011;22639;42.690;23.356;2023-11-22T09:04:53;27.47;;;18.93;;
36391;SDS011;22639;42.690;23.356;2023-11-22T09:07:18;31.33;;;22.20;;
36391;SDS011;22639;42.690;23.356;2023-11-22T09:09:47;30.40;;;19.73;;
36391;SDS011;22639;42.690;23.356;2023-11-22T09:12:13;25.00;;;16.13;;
36391;SDS011;22639;42.690;23.356;2023-11-22T09:14:39;22.43;;;16.37;;
36391;SDS011;22639;42.690;23.356;2023-11-22T09:17:05;22.20;;;16.33;;
36391;SDS011;22639;42.690;23.356;2023-11-22T09:19:32;23.33;;;16.17;;
36391;SDS011;22639;42.690;23.356;2023-11-22T09:21:57;24.23;;;14.50;;
36391;SDS011;22639;42.690;23.356;2023-11-22T09:24:23;30.53;;;16.17;;
36391;SDS011;22639;42.690;23.356;2023-11-22T09:26:49;24.53;;;16.03;;
36391;SDS011;22639;42.690;23.356;2023-11-22T09:29:14;29.20;;;18.60;;
36391;SDS011;22639;42.690;23.356;2023-11-22T09:31:40;25.93;;;19.40;;
36391;SDS011;22639;42.690;23.356;2023-11-22T09:34:08;26.70;;;19.00;;
36391;SDS011;22639;42.690;23.356;2023-11-22T09:36:35;26.97;;;16.00;;
36391;SDS011;22639;42.690;23.356;2023-11-22T09:39:02;22.27;;;14.43;;
36391;SDS011;22639;42.690;23.356;2023-11-22T09:41:29;20.63;;;13.33;;
36391;SDS011;22639;42.690;23.356;2023-11-22T09:43:54;19.30;;;14.40;;
36391;SDS011;22639;42.690;23.356;2023-11-22T09:46:21;20.93;;;12.50;;
36391;SDS011;22639;42.690;23.356;2023-11-22T09:48:48;18.27;;;12.27;;
36391;SDS011;22639;42.690;23.356;2023-11-22T09:51:21;18.77;;;13.63;;
36391;SDS011;22639;42.690;23.356;2023-11-22T09:56:21;21.77;;;15.90;;
36391;SDS011;22639;42.690;23.356;2023-11-22T09:58:48;21.73;;;15.47;;
36391;SDS011;22639;42.690;23.356;2023-11-22T10:01:19;23.33;;;16.33;;
36391;SDS011;22639;42.690;23.356;2023-11-22T10:03:47;22.47;;;15.47;;
36391;SDS011;22639;42.690;23.356;2023-11-22T10:06:13;27.20;;;17.13;;
36391;SDS011;22639;42.690;23.356;2023-11-22T10:08:40;22.50;;;17.30;;
36391;SDS011;22639;42.690;23.356;2023-11-22T10:11:06;25.90;;;15.30;;
36391;SDS011;22639;42.690;23.356;2023-11-22T10:13:33;22.23;;;14.83;;
36391;SDS011;22639;42.690;23.356;2023-11-22T10:16:09;21.57;;;14.87;;
36391;SDS011;22639;42.690;23.356;2023-11-22T10:18:42;19.60;;;13.63;;
36391;SDS011;22639;42.690;23.356;2023-11-22T10:24:06;23.37;;;13.90;;
36391;SDS011;22639;42.690;23.356;2023-11-22T10:26:35;22.40;;;13.07;;
36391;SDS011;22639;42.690;23.356;2023-11-22T10:29:00;24.30;;;14.47;;
36391;SDS011;22639;42.690;23.356;2023-11-22T10:31:27;26.40;;;14.37;;
36391;SDS011;22639;42.690;23.356;2023-11-22T10:33:53;21.83;;;12.83;;
36391;SDS011;22639;42.690;23.356;2023-11-22T10:36:22;28.53;;;15.60;;
36391;SDS011;22639;42.690;23.356;2023-11-22T10:38:48;18.63;;;14.00;;
36391;SDS011;22639;42.690;23.356;2023-11-22T10:41:14;32.17;;;16.57;;
36391;SDS011;22639;42.690;23.356;2023-11-22T10:43:39;24.77;;;14.77;;
36391;SDS011;22639;42.690;23.356;2023-11-22T10:46:07;21.40;;;15.67;;
36391;SDS011;22639;42.690;23.356;2023-11-22T10:48:36;18.37;;;13.30;;
36391;SDS011;22639;42.690;23.356;2023-11-22T10:51:02;25.33;;;15.13;;
36391;SDS011;22639;42.690;23.356;2023-11-22T10:53:31;21.30;;;14.10;;
36391;SDS011;22639;42.690;23.356;2023-11-22T10:56:04;20.90;;;14.33;;
36391;SDS011;22639;42.690;23.356;2023-11-22T10:58:31;20.43;;;14.20;;
36391;SDS011;22639;42.690;23.356;2023-11-22T11:00:59;23.03;;;15.80;;
36391;SDS011;22639;42.690;23.356;2023-11-22T11:03:26;24.70;;;15.90;;
36391;SDS011;22639;42.690;23.356;2023-11-22T11:05:59;22.23;;;14.13;;
36391;SDS011;22639;42.690;23.356;2023-11-22T11:08:29;23.33;;;15.30;;
36391;SDS011;22639;42.690;23.356;2023-11-22T11:10:57;21.83;;;14.13;;
36391;SDS011;22639;42.690;23.356;2023-11-22T11:13:23;20.53;;;15.50;;
36391;SDS011;22639;42.690;23.356;2023-11-22T11:15:49;25.77;;;15.37;;
36391;SDS011;22639;42.690;23.356;2023-11-22T11:18:16;24.37;;;16.07;;
36391;SDS011;22639;42.690;23.356;2023-11-22T11:20:47;21.70;;;15.40;;
36391;SDS011;22639;42.690;23.356;2023-11-22T11:23:14;22.27;;;15.57;;
36391;SDS011;22639;42.690;23.356;2023-11-22T11:25:47;22.80;;;14.87;;
36391;SDS011;22639;42.690;23.356;2023-11-22T11:28:13;19.80;;;14.13;;
36391;SDS011;22639;42.690;23.356;2023-11-22T11:33:12;18.43;;;13.80;;
36391;SDS011;22639;42.690;23.356;2023-11-22T11:35:44;21.90;;;13.97;;
36391;SDS011;22639;42.690;23.356;2023-11-22T11:38:13;24.70;;;15.63;;
36391;SDS011;22639;42.690;23.356;2023-11-22T11:40:42;20.10;;;14.53;;
36391;SDS011;22639;42.690;23.356;2023-11-22T11:43:11;23.07;;;14.87;;
36391;SDS011;22639;42.690;23.356;2023-11-22T11:45:41;24.23;;;15.47;;
36391;SDS011;22639;42.690;23.356;2023-11-22T11:48:15;23.07;;;15.53;;
36391;SDS011;22639;42.690;23.356;2023-11-22T11:50:42;24.23;;;15.37;;
36391;SDS011;22639;42.690;23.356;2023-11-22T11:53:09;19.93;;;13.90;;
36391;SDS011;22639;42.690;23.356;2023-11-22T11:55:38;20.40;;;13.97;;
36391;SDS011;22639;42.690;23.356;2023-11-22T11:58:06;23.47;;;16.10;;
36391;SDS011;22639;42.690;23.356;2023-11-22T12:00:36;21.40;;;15.23;;
36391;SDS011;22639;42.690;23.356;2023-11-22T12:03:06;26.07;;;15.97;;
36391;SDS011;22639;42.690;23.356;2023-11-22T12:05:35;24.00;;;16.43;;
36391;SDS011;22639;42.690;23.356;2023-11-22T12:08:03;23.67;;;15.77;;
36391;SDS011;22639;42.690;23.356;2023-11-22T12:10:30;21.53;;;14.77;;
36391;SDS011;22639;42.690;23.356;2023-11-22T12:12:57;24.63;;;16.00;;
36391;SDS011;22639;42.690;23.356;2023-11-22T12:15:24;22.10;;;15.43;;
36391;SDS011;22639;42.690;23.356;2023-11-22T12:17:50;23.97;;;15.73;;
36391;SDS011;22639;42.690;23.356;2023-11-22T12:20:19;27.83;;;15.73;;
36391;SDS011;22639;42.690;23.356;2023-11-22T12:22:46;25.63;;;15.70;;
36391;SDS011;22639;42.690;23.356;2023-11-22T12:25:13;25.37;;;16.90;;
36391;SDS011;22639;42.690;23.356;2023-11-22T12:27:39;22.37;;;17.23;;
36391;SDS011;22639;42.690;23.356;2023-11-22T12:30:06;24.42;;;17.17;;
36391;SDS011;22639;42.690;23.356;2023-11-22T12:32:33;22.73;;;16.85;;
36391;SDS011;22639;42.690;23.356;2023-11-22T12:34:58;27.48;;;18.10;;
36391;SDS011;22639;42.690;23.356;2023-11-22T12:37:26;23.40;;;16.50;;
36391;SDS011;22639;42.690;23.356;2023-11-22T12:39:54;31.10;;;17.67;;
36391;SDS011;22639;42.690;23.356;2023-11-22T12:42:20;23.50;;;16.80;;
36391;SDS011;22639;42.690;23.356;2023-11-22T12:44:49;25.00;;;16.30;;
36391;SDS011;22639;42.690;23.356;2023-11-22T12:47:38;19.80;;;14.80;;
36391;SDS011;22639;42.690;23.356;2023-11-22T12:50:05;23.03;;;15.33;;
36391;SDS011;22639;42.690;23.356;2023-11-22T12:52:32;23.37;;;15.83;;
36391;SDS011;22639;42.690;23.356;2023-11-22T12:54:58;25.53;;;15.87;;
36391;SDS011;22639;42.690;23.356;2023-11-22T12:57:24;22.40;;;16.50;;
36391;SDS011;22639;42.690;23.356;2023-11-22T12:59:49;25.10;;;15.15;;
36391;SDS011;22639;42.690;23.356;2023-11-22T13:02:15;18.40;;;13.40;;
36391;SDS011;22639;42.690;23.356;2023-11-22T13:04:43;20.03;;;13.90;;
36391;SDS011;22639;42.690;23.356;2023-11-22T13:07:10;29.07;;;13.83;;
36391;SDS011;22639;42.690;23.356;2023-11-22T13:09:36;20.80;;;14.13;;
36391;SDS011;22639;42.690;23.356;2023-11-22T13:12:01;21.30;;;14.73;;
36391;SDS011;22639;42.690;23.356;2023-11-22T13:14:27;20.13;;;13.07;;
36391;SDS011;22639;42.690;23.356;2023-11-22T13:17:00;21.57;;;12.47;;
36391;SDS011;22639;42.690;23.356;2023-11-22T13:19:25;22.83;;;14.00;;
36391;SDS011;22639;42.690;23.356;2023-11-22T13:21:51;16.38;;;11.55;;
36391;SDS011;22639;42.690;23.356;2023-11-22T13:24:17;15.20;;;12.03;;
36391;SDS011;22639;42.690;23.356;2023-11-22T13:26:43;17.77;;;11.85;;
36391;SDS011;22639;42.690;23.356;2023-11-22T13:29:09;14.87;;;10.40;;
36391;SDS011;22639;42.690;23.356;2023-11-22T13:31:38;15.57;;;10.30;;
36391;SDS011;22639;42.690;23.356;2023-11-22T13:34:24;11.35;;;8.90;;
36391;SDS011;22639;42.690;23.356;2023-11-22T13:36:53;13.17;;;10.90;;
36391;SDS011;22639;42.690;23.356;2023-11-22T13:39:21;15.93;;;10.67;;
36391;SDS011;22639;42.690;23.356;2023-11-22T13:41:49;18.67;;;12.33;;
36391;SDS011;22639;42.690;23.356;2023-11-22T13:44:25;17.27;;;12.27;;
36391;SDS011;22639;42.690;23.356;2023-11-22T13:46:51;15.17;;;11.60;;
36391;SDS011;22639;42.690;23.356;2023-11-22T13:49:17;15.38;;;11.18;;
36391;SDS011;22639;42.690;23.356;2023-11-22T13:51:43;18.97;;;11.73;;
36391;SDS011;22639;42.690;23.356;2023-11-22T13:54:09;18.40;;;12.47;;
36391;SDS011;22639;42.690;23.356;2023-11-22T13:56:36;15.67;;;11.17;;
36391;SDS011;22639;42.690;23.356;2023-11-22T13:59:02;16.67;;;11.97;;
36391;SDS011;22639;42.690;23.356;2023-11-22T14:01:29;16.23;;;10.60;;
36391;SDS011;22639;42.690;23.356;2023-11-22T14:03:57;17.50;;;12.93;;
36391;SDS011;22639;42.690;23.356;2023-11-22T14:06:23;14.80;;;9.67;;
36391;SDS011;22639;42.690;23.356;2023-11-22T14:08:48;12.17;;;8.57;;
36391;SDS011;22639;42.690;23.356;2023-11-22T14:11:14;12.27;;;8.30;;
36391;SDS011;22639;42.690;23.356;2023-11-22T14:13:39;11.40;;;7.97;;